sensor_id;sensor_type;location;lat;lon;timestamp;P1;durP1;ratioP1;P2;durP2;ratioP2
19944;SDS011;10134;50.952;6.930;2023-11-19T00:00:40;2.03;;;1.38;;
19944;SDS011;10134;50.952;6.930;2023-11-19T00:03:21;1.70;;;1.23;;
19944;SDS011;10134;50.952;6.930;2023-11-19T00:05:49;2.25;;;1.27;;
19944;SDS011;10134;50.952;6.930;2023-11-19T00:08:18;2.75;;;1.65;;
19944;SDS011;10134;50.952;6.930;2023-11-19T00:10:47;2.15;;;1.48;;
19944;SDS011;10134;50.952;6.930;2023-11-19T00:13:15;3.38;;;1.88;;
19944;SDS011;10134;50.952;6.930;2023-11-19T00:15:44;4.80;;;2.05;;
19944;SDS011;10134;50.952;6.930;2023-11-19T00:18:14;3.53;;;2.17;;
19944;SDS011;10134;50.952;6.930;2023-11-19T00:20:44;4.45;;;2.05;;
19944;SDS011;10134;50.952;6.930;2023-11-19T00:23:13;2.85;;;1.67;;
19944;SDS011;10134;50.952;6.930;2023-11-19T00:25:42;2.53;;;1.30;;
19944;SDS011;10134;50.952;6.930;2023-11-19T00:28:11;2.28;;;1.42;;
19944;SDS011;10134;50.952;6.930;2023-11-19T00:30:40;3.00;;;1.77;;
19944;SDS011;10134;50.952;6.930;2023-11-19T00:33:08;2.67;;;1.75;;
19944;SDS011;10134;50.952;6.930;2023-11-19T00:35:38;2.28;;;1.55;;
19944;SDS011;10134;50.952;6.930;2023-11-19T00:38:08;2.60;;;1.35;;
19944;SDS011;10134;50.952;6.930;2023-11-19T00:40:36;1.88;;;1.25;;
19944;SDS011;10134;50.952;6.930;2023-11-19T00:43:05;3.33;;;0.98;;
19944;SDS011;10134;50.952;6.930;2023-11-19T00:45:34;1.95;;;1.45;;
19944;SDS011;10134;50.952;6.930;2023-11-19T00:48:03;2.28;;;1.20;;
19944;SDS011;10134;50.952;6.930;2023-11-19T00:50:33;4.10;;;1.40;;
19944;SDS011;10134;50.952;6.930;2023-11-19T00:53:04;1.55;;;1.40;;
19944;SDS011;10134;50.952;6.930;2023-11-19T00:55:34;1.83;;;1.08;;
19944;SDS011;10134;50.952;6.930;2023-11-19T00:58:13;3.17;;;1.13;;
19944;SDS011;10134;50.952;6.930;2023-11-19T01:00:41;1.25;;;1.15;;
19944;SDS011;10134;50.952;6.930;2023-11-19T01:03:11;1.55;;;1.05;;
19944;SDS011;10134;50.952;6.930;2023-11-19T01:05:41;2.70;;;0.85;;
19944;SDS011;10134;50.952;6.930;2023-11-19T01:08:11;2.92;;;1.00;;
19944;SDS011;10134;50.952;6.930;2023-11-19T01:10:41;0.93;;;0.63;;
19944;SDS011;10134;50.952;6.930;2023-11-19T01:13:09;1.05;;;0.85;;
19944;SDS011;10134;50.952;6.930;2023-11-19T01:15:38;1.30;;;0.70;;
19944;SDS011;10134;50.952;6.930;2023-11-19T01:18:08;0.90;;;0.70;;
19944;SDS011;10134;50.952;6.930;2023-11-19T01:20:37;1.88;;;1.00;;
19944;SDS011;10134;50.952;6.930;2023-11-19T01:23:06;0.75;;;0.73;;
19944;SDS011;10134;50.952;6.930;2023-11-19T01:25:34;1.17;;;0.70;;
19944;SDS011;10134;50.952;6.930;2023-11-19T01:28:06;1.15;;;0.90;;
19944;SDS011;10134;50.952;6.930;2023-11-19T01:30:35;3.65;;;1.80;;
19944;SDS011;10134;50.952;6.930;2023-11-19T01:33:04;1.52;;;1.00;;
19944;SDS011;10134;50.952;6.930;2023-11-19T01:35:34;2.40;;;0.85;;
19944;SDS011;10134;50.952;6.930;2023-11-19T01:38:03;1.70;;;1.20;;
19944;SDS011;10134;50.952;6.930;2023-11-19T01:40:31;1.90;;;1.10;;
19944;SDS011;10134;50.952;6.930;2023-11-19T01:43:00;1.77;;;1.10;;
19944;SDS011;10134;50.952;6.930;2023-11-19T01:45:31;1.33;;;0.70;;
19944;SDS011;10134;50.952;6.930;2023-11-19T01:48:02;1.35;;;0.70;;
19944;SDS011;10134;50.952;6.930;2023-11-19T01:50:31;0.95;;;0.70;;
19944;SDS011;10134;50.952;6.930;2023-11-19T01:53:02;2.67;;;1.17;;
19944;SDS011;10134;50.952;6.930;2023-11-19T01:55:31;4.25;;;1.17;;
19944;SDS011;10134;50.952;6.930;2023-11-19T01:58:01;1.75;;;1.38;;
19944;SDS011;10134;50.952;6.930;2023-11-19T02:00:32;2.83;;;1.40;;
19944;SDS011;10134;50.952;6.930;2023-11-19T02:03:01;4.93;;;1.10;;
19944;SDS011;10134;50.952;6.930;2023-11-19T02:05:31;3.95;;;1.50;;
19944;SDS011;10134;50.952;6.930;2023-11-19T02:08:00;2.88;;;0.95;;
19944;SDS011;10134;50.952;6.930;2023-11-19T02:10:29;3.50;;;1.25;;
19944;SDS011;10134;50.952;6.930;2023-11-19T02:13:00;2.22;;;1.30;;
19944;SDS011;10134;50.952;6.930;2023-11-19T02:15:33;2.83;;;1.20;;
19944;SDS011;10134;50.952;6.930;2023-11-19T02:18:18;4.70;;;1.15;;
19944;SDS011;10134;50.952;6.930;2023-11-19T02:20:49;4.53;;;1.52;;
19944;SDS011;10134;50.952;6.930;2023-11-19T02:23:18;3.90;;;1.60;;
19944;SDS011;10134;50.952;6.930;2023-11-19T02:25:51;5.95;;;1.23;;
19944;SDS011;10134;50.952;6.930;2023-11-19T02:28:36;5.78;;;2.05;;
19944;SDS011;10134;50.952;6.930;2023-11-19T02:31:06;3.67;;;1.67;;
19944;SDS011;10134;50.952;6.930;2023-11-19T02:33:36;7.50;;;1.90;;
19944;SDS011;10134;50.952;6.930;2023-11-19T02:36:06;6.15;;;1.40;;
19944;SDS011;10134;50.952;6.930;2023-11-19T02:38:35;4.40;;;2.05;;
19944;SDS011;10134;50.952;6.930;2023-11-19T02:41:05;5.75;;;1.48;;
19944;SDS011;10134;50.952;6.930;2023-11-19T02:43:37;3.90;;;1.60;;
19944;SDS011;10134;50.952;6.930;2023-11-19T02:46:06;8.55;;;1.67;;
19944;SDS011;10134;50.952;6.930;2023-11-19T02:48:38;6.88;;;2.33;;
19944;SDS011;10134;50.952;6.930;2023-11-19T02:51:07;9.07;;;2.25;;
19944;SDS011;10134;50.952;6.930;2023-11-19T02:53:37;7.20;;;1.65;;
19944;SDS011;10134;50.952;6.930;2023-11-19T02:56:07;8.63;;;1.90;;
19944;SDS011;10134;50.952;6.930;2023-11-19T02:58:47;5.30;;;1.48;;
19944;SDS011;10134;50.952;6.930;2023-11-19T03:01:21;5.97;;;1.65;;
19944;SDS011;10134;50.952;6.930;2023-11-19T03:03:56;5.50;;;1.70;;
19944;SDS011;10134;50.952;6.930;2023-11-19T03:06:26;6.47;;;1.73;;
19944;SDS011;10134;50.952;6.930;2023-11-19T03:08:55;11.10;;;2.30;;
19944;SDS011;10134;50.952;6.930;2023-11-19T03:11:24;5.43;;;1.58;;
19944;SDS011;10134;50.952;6.930;2023-11-19T03:13:54;7.90;;;2.17;;
19944;SDS011;10134;50.952;6.930;2023-11-19T03:16:23;5.15;;;1.63;;
19944;SDS011;10134;50.952;6.930;2023-11-19T03:18:51;4.68;;;1.67;;
19944;SDS011;10134;50.952;6.930;2023-11-19T03:21:26;12.68;;;2.38;;
19944;SDS011;10134;50.952;6.930;2023-11-19T03:23:56;7.55;;;2.38;;
19944;SDS011;10134;50.952;6.930;2023-11-19T03:26:26;8.63;;;1.90;;
19944;SDS011;10134;50.952;6.930;2023-11-19T03:28:56;9.50;;;1.98;;
19944;SDS011;10134;50.952;6.930;2023-11-19T03:31:25;7.72;;;2.13;;
19944;SDS011;10134;50.952;6.930;2023-11-19T03:33:54;10.90;;;2.10;;
19944;SDS011;10134;50.952;6.930;2023-11-19T03:36:28;8.43;;;1.90;;
19944;SDS011;10134;50.952;6.930;2023-11-19T03:39:00;6.57;;;2.05;;
19944;SDS011;10134;50.952;6.930;2023-11-19T03:41:30;10.93;;;2.00;;
19944;SDS011;10134;50.952;6.930;2023-11-19T03:44:20;9.15;;;2.22;;
19944;SDS011;10134;50.952;6.930;2023-11-19T03:46:49;7.18;;;2.15;;
19944;SDS011;10134;50.952;6.930;2023-11-19T03:49:17;5.00;;;1.73;;
19944;SDS011;10134;50.952;6.930;2023-11-19T03:51:46;9.10;;;2.75;;
19944;SDS011;10134;50.952;6.930;2023-11-19T03:54:14;4.20;;;1.83;;
19944;SDS011;10134;50.952;6.930;2023-11-19T03:56:43;11.45;;;2.67;;
19944;SDS011;10134;50.952;6.930;2023-11-19T03:59:12;5.40;;;1.75;;
19944;SDS011;10134;50.952;6.930;2023-11-19T04:01:43;8.48;;;2.58;;
19944;SDS011;10134;50.952;6.930;2023-11-19T04:04:12;8.65;;;2.15;;
19944;SDS011;10134;50.952;6.930;2023-11-19T04:06:41;9.07;;;1.90;;
19944;SDS011;10134;50.952;6.930;2023-11-19T04:09:10;6.82;;;1.98;;
19944;SDS011;10134;50.952;6.930;2023-11-19T04:11:38;5.63;;;2.40;;
19944;SDS011;10134;50.952;6.930;2023-11-19T04:14:07;7.50;;;2.25;;
19944;SDS011;10134;50.952;6.930;2023-11-19T04:16:37;9.95;;;2.22;;
19944;SDS011;10134;50.952;6.930;2023-11-19T04:19:07;6.72;;;1.85;;
19944;SDS011;10134;50.952;6.930;2023-11-19T04:21:36;3.42;;;1.58;;
19944;SDS011;10134;50.952;6.930;2023-11-19T04:24:04;9.35;;;2.28;;
19944;SDS011;10134;50.952;6.930;2023-11-19T04:26:33;10.70;;;2.05;;
19944;SDS011;10134;50.952;6.930;2023-11-19T04:29:03;6.60;;;2.10;;
19944;SDS011;10134;50.952;6.930;2023-11-19T04:31:33;7.93;;;2.03;;
19944;SDS011;10134;50.952;6.930;2023-11-19T04:34:01;9.75;;;2.45;;
19944;SDS011;10134;50.952;6.930;2023-11-19T04:36:31;11.00;;;2.17;;
19944;SDS011;10134;50.952;6.930;2023-11-19T04:39:01;6.82;;;2.13;;
19944;SDS011;10134;50.952;6.930;2023-11-19T04:41:30;12.27;;;2.50;;
19944;SDS011;10134;50.952;6.930;2023-11-19T04:43:58;12.15;;;3.55;;
19944;SDS011;10134;50.952;6.930;2023-11-19T04:46:27;8.20;;;2.10;;
19944;SDS011;10134;50.952;6.930;2023-11-19T04:48:56;11.40;;;3.10;;
19944;SDS011;10134;50.952;6.930;2023-11-19T04:51:24;6.10;;;2.15;;
19944;SDS011;10134;50.952;6.930;2023-11-19T04:53:54;13.45;;;2.85;;
19944;SDS011;10134;50.952;6.930;2023-11-19T04:56:23;18.77;;;2.75;;
19944;SDS011;10134;50.952;6.930;2023-11-19T04:58:52;13.88;;;2.83;;
19944;SDS011;10134;50.952;6.930;2023-11-19T05:01:21;8.63;;;2.10;;
19944;SDS011;10134;50.952;6.930;2023-11-19T05:03:50;10.63;;;2.53;;
19944;SDS011;10134;50.952;6.930;2023-11-19T05:06:19;11.73;;;2.42;;
19944;SDS011;10134;50.952;6.930;2023-11-19T05:08:47;15.82;;;2.97;;
19944;SDS011;10134;50.952;6.930;2023-11-19T05:11:17;13.07;;;2.83;;
19944;SDS011;10134;50.952;6.930;2023-11-19T05:13:46;16.50;;;3.33;;
19944;SDS011;10134;50.952;6.930;2023-11-19T05:16:15;8.18;;;2.70;;
19944;SDS011;10134;50.952;6.930;2023-11-19T05:18:44;10.90;;;2.90;;
19944;SDS011;10134;50.952;6.930;2023-11-19T05:21:13;8.73;;;2.55;;
19944;SDS011;10134;50.952;6.930;2023-11-19T05:23:41;14.65;;;2.45;;
19944;SDS011;10134;50.952;6.930;2023-11-19T05:26:18;12.88;;;2.30;;
19944;SDS011;10134;50.952;6.930;2023-11-19T05:28:47;11.13;;;2.20;;
19944;SDS011;10134;50.952;6.930;2023-11-19T05:31:16;12.85;;;2.40;;
19944;SDS011;10134;50.952;6.930;2023-11-19T05:33:46;9.25;;;2.58;;
19944;SDS011;10134;50.952;6.930;2023-11-19T05:36:15;13.38;;;2.30;;
19944;SDS011;10134;50.952;6.930;2023-11-19T05:38:43;21.00;;;2.83;;
19944;SDS011;10134;50.952;6.930;2023-11-19T05:41:12;10.43;;;2.63;;
19944;SDS011;10134;50.952;6.930;2023-11-19T05:43:43;7.63;;;2.58;;
19944;SDS011;10134;50.952;6.930;2023-11-19T05:46:11;12.65;;;2.45;;
19944;SDS011;10134;50.952;6.930;2023-11-19T05:48:43;7.93;;;1.77;;
19944;SDS011;10134;50.952;6.930;2023-11-19T05:51:13;13.45;;;2.72;;
19944;SDS011;10134;50.952;6.930;2023-11-19T05:53:43;13.02;;;2.90;;
19944;SDS011;10134;50.952;6.930;2023-11-19T05:56:12;14.27;;;2.58;;
19944;SDS011;10134;50.952;6.930;2023-11-19T05:58:44;14.88;;;2.53;;
19944;SDS011;10134;50.952;6.930;2023-11-19T06:01:12;13.68;;;2.50;;
19944;SDS011;10134;50.952;6.930;2023-11-19T06:03:41;15.18;;;2.85;;
19944;SDS011;10134;50.952;6.930;2023-11-19T06:06:14;10.93;;;2.47;;
19944;SDS011;10134;50.952;6.930;2023-11-19T06:08:43;13.57;;;3.00;;
19944;SDS011;10134;50.952;6.930;2023-11-19T06:11:11;15.13;;;2.72;;
19944;SDS011;10134;50.952;6.930;2023-11-19T06:13:46;11.95;;;2.95;;
19944;SDS011;10134;50.952;6.930;2023-11-19T06:16:17;13.50;;;3.50;;
19944;SDS011;10134;50.952;6.930;2023-11-19T06:18:46;19.05;;;3.85;;
19944;SDS011;10134;50.952;6.930;2023-11-19T06:21:14;15.77;;;2.88;;
19944;SDS011;10134;50.952;6.930;2023-11-19T06:23:43;18.65;;;2.78;;
19944;SDS011;10134;50.952;6.930;2023-11-19T06:26:12;19.30;;;3.88;;
19944;SDS011;10134;50.952;6.930;2023-11-19T06:28:41;18.23;;;3.22;;
19944;SDS011;10134;50.952;6.930;2023-11-19T06:31:11;12.93;;;2.58;;
19944;SDS011;10134;50.952;6.930;2023-11-19T06:33:43;16.25;;;3.78;;
19944;SDS011;10134;50.952;6.930;2023-11-19T06:36:13;9.30;;;2.45;;
19944;SDS011;10134;50.952;6.930;2023-11-19T06:38:43;15.20;;;3.20;;
19944;SDS011;10134;50.952;6.930;2023-11-19T06:41:11;26.50;;;4.28;;
19944;SDS011;10134;50.952;6.930;2023-11-19T06:43:40;14.68;;;3.28;;
19944;SDS011;10134;50.952;6.930;2023-11-19T06:46:17;19.67;;;3.70;;
19944;SDS011;10134;50.952;6.930;2023-11-19T06:48:45;13.18;;;2.75;;
19944;SDS011;10134;50.952;6.930;2023-11-19T06:51:14;15.45;;;3.17;;
19944;SDS011;10134;50.952;6.930;2023-11-19T06:53:43;12.25;;;2.80;;
19944;SDS011;10134;50.952;6.930;2023-11-19T06:56:19;15.48;;;3.17;;
19944;SDS011;10134;50.952;6.930;2023-11-19T06:58:49;11.63;;;2.95;;
19944;SDS011;10134;50.952;6.930;2023-11-19T07:01:19;14.82;;;2.97;;
19944;SDS011;10134;50.952;6.930;2023-11-19T07:03:48;10.18;;;3.40;;
19944;SDS011;10134;50.952;6.930;2023-11-19T07:06:18;15.32;;;3.13;;
19944;SDS011;10134;50.952;6.930;2023-11-19T07:09:01;8.80;;;3.35;;
19944;SDS011;10134;50.952;6.930;2023-11-19T07:11:36;25.38;;;4.28;;
19944;SDS011;10134;50.952;6.930;2023-11-19T07:14:05;15.45;;;3.47;;
19944;SDS011;10134;50.952;6.930;2023-11-19T07:16:35;17.73;;;3.47;;
19944;SDS011;10134;50.952;6.930;2023-11-19T07:19:05;15.07;;;2.95;;
19944;SDS011;10134;50.952;6.930;2023-11-19T07:21:34;21.80;;;4.57;;
19944;SDS011;10134;50.952;6.930;2023-11-19T07:24:06;19.00;;;3.25;;
19944;SDS011;10134;50.952;6.930;2023-11-19T07:26:35;10.63;;;3.00;;
19944;SDS011;10134;50.952;6.930;2023-11-19T07:29:04;15.75;;;2.95;;
19944;SDS011;10134;50.952;6.930;2023-11-19T07:31:36;11.93;;;2.42;;
19944;SDS011;10134;50.952;6.930;2023-11-19T07:34:04;16.48;;;3.25;;
19944;SDS011;10134;50.952;6.930;2023-11-19T07:36:33;18.95;;;2.83;;
19944;SDS011;10134;50.952;6.930;2023-11-19T07:39:02;17.23;;;3.50;;
19944;SDS011;10134;50.952;6.930;2023-11-19T07:41:32;19.10;;;3.10;;
19944;SDS011;10134;50.952;6.930;2023-11-19T07:44:05;12.60;;;2.83;;
19944;SDS011;10134;50.952;6.930;2023-11-19T07:46:35;15.38;;;4.45;;
19944;SDS011;10134;50.952;6.930;2023-11-19T07:49:04;10.05;;;2.95;;
19944;SDS011;10134;50.952;6.930;2023-11-19T07:51:33;15.20;;;3.78;;
19944;SDS011;10134;50.952;6.930;2023-11-19T07:54:02;11.73;;;2.70;;
19944;SDS011;10134;50.952;6.930;2023-11-19T07:56:31;18.90;;;3.30;;
19944;SDS011;10134;50.952;6.930;2023-11-19T07:59:01;13.88;;;3.40;;
19944;SDS011;10134;50.952;6.930;2023-11-19T08:01:29;17.02;;;3.17;;
19944;SDS011;10134;50.952;6.930;2023-11-19T08:03:59;17.27;;;3.85;;
19944;SDS011;10134;50.952;6.930;2023-11-19T08:06:30;22.08;;;3.90;;
19944;SDS011;10134;50.952;6.930;2023-11-19T08:08:58;18.67;;;4.57;;
19944;SDS011;10134;50.952;6.930;2023-11-19T08:11:27;11.95;;;3.25;;
19944;SDS011;10134;50.952;6.930;2023-11-19T08:13:56;12.63;;;2.97;;
19944;SDS011;10134;50.952;6.930;2023-11-19T08:16:24;19.75;;;3.97;;
19944;SDS011;10134;50.952;6.930;2023-11-19T08:18:53;14.10;;;3.35;;
19944;SDS011;10134;50.952;6.930;2023-11-19T08:21:23;13.70;;;3.35;;
19944;SDS011;10134;50.952;6.930;2023-11-19T08:23:53;18.70;;;3.22;;
19944;SDS011;10134;50.952;6.930;2023-11-19T08:26:22;11.77;;;3.50;;
19944;SDS011;10134;50.952;6.930;2023-11-19T08:28:51;20.05;;;3.67;;
19944;SDS011;10134;50.952;6.930;2023-11-19T08:31:20;17.08;;;3.53;;
19944;SDS011;10134;50.952;6.930;2023-11-19T08:33:48;15.00;;;3.35;;
19944;SDS011;10134;50.952;6.930;2023-11-19T08:36:17;11.93;;;2.90;;
19944;SDS011;10134;50.952;6.930;2023-11-19T08:38:47;11.63;;;2.63;;
19944;SDS011;10134;50.952;6.930;2023-11-19T08:41:16;12.32;;;3.08;;
19944;SDS011;10134;50.952;6.930;2023-11-19T08:43:45;16.60;;;4.05;;
19944;SDS011;10134;50.952;6.930;2023-11-19T08:46:14;14.68;;;3.63;;
19944;SDS011;10134;50.952;6.930;2023-11-19T08:48:42;13.43;;;3.53;;
19944;SDS011;10134;50.952;6.930;2023-11-19T08:51:11;13.63;;;3.47;;
19944;SDS011;10134;50.952;6.930;2023-11-19T08:53:39;17.33;;;3.00;;
19944;SDS011;10134;50.952;6.930;2023-11-19T08:56:10;12.82;;;2.45;;
19944;SDS011;10134;50.952;6.930;2023-11-19T08:58:39;17.00;;;3.78;;
19944;SDS011;10134;50.952;6.930;2023-11-19T09:01:10;13.38;;;3.28;;
19944;SDS011;10134;50.952;6.930;2023-11-19T09:03:38;24.50;;;3.58;;
19944;SDS011;10134;50.952;6.930;2023-11-19T09:06:07;17.60;;;3.65;;
19944;SDS011;10134;50.952;6.930;2023-11-19T09:08:36;14.73;;;2.70;;
19944;SDS011;10134;50.952;6.930;2023-11-19T09:11:09;15.93;;;3.42;;
19944;SDS011;10134;50.952;6.930;2023-11-19T09:13:38;18.15;;;5.00;;
19944;SDS011;10134;50.952;6.930;2023-11-19T09:16:12;16.60;;;3.60;;
19944;SDS011;10134;50.952;6.930;2023-11-19T09:18:40;17.23;;;3.03;;
19944;SDS011;10134;50.952;6.930;2023-11-19T09:21:10;17.45;;;3.55;;
19944;SDS011;10134;50.952;6.930;2023-11-19T09:23:39;16.30;;;3.72;;
19944;SDS011;10134;50.952;6.930;2023-11-19T09:26:09;16.77;;;3.78;;
19944;SDS011;10134;50.952;6.930;2023-11-19T09:28:38;13.18;;;2.80;;
19944;SDS011;10134;50.952;6.930;2023-11-19T09:31:13;17.35;;;3.88;;
19944;SDS011;10134;50.952;6.930;2023-11-19T09:33:42;12.98;;;3.25;;
19944;SDS011;10134;50.952;6.930;2023-11-19T09:36:11;20.15;;;4.00;;
19944;SDS011;10134;50.952;6.930;2023-11-19T09:38:41;16.17;;;3.83;;
19944;SDS011;10134;50.952;6.930;2023-11-19T09:41:11;17.15;;;3.65;;
19944;SDS011;10134;50.952;6.930;2023-11-19T09:43:40;15.90;;;3.00;;
19944;SDS011;10134;50.952;6.930;2023-11-19T09:46:10;18.10;;;3.88;;
19944;SDS011;10134;50.952;6.930;2023-11-19T09:48:39;14.48;;;2.53;;
19944;SDS011;10134;50.952;6.930;2023-11-19T09:51:09;10.65;;;3.35;;
19944;SDS011;10134;50.952;6.930;2023-11-19T09:53:38;16.73;;;3.30;;
19944;SDS011;10134;50.952;6.930;2023-11-19T09:56:08;17.23;;;3.30;;
19944;SDS011;10134;50.952;6.930;2023-11-19T09:58:40;16.02;;;3.95;;
19944;SDS011;10134;50.952;6.930;2023-11-19T10:01:09;16.25;;;2.83;;
19944;SDS011;10134;50.952;6.930;2023-11-19T10:03:47;17.73;;;3.78;;
19944;SDS011;10134;50.952;6.930;2023-11-19T10:06:27;10.32;;;3.47;;
19944;SDS011;10134;50.952;6.930;2023-11-19T10:08:57;20.77;;;3.60;;
19944;SDS011;10134;50.952;6.930;2023-11-19T10:11:32;27.42;;;5.60;;
19944;SDS011;10134;50.952;6.930;2023-11-19T10:14:09;16.83;;;3.97;;
19944;SDS011;10134;50.952;6.930;2023-11-19T10:16:39;16.90;;;3.42;;
19944;SDS011;10134;50.952;6.930;2023-11-19T10:19:11;20.27;;;3.95;;
19944;SDS011;10134;50.952;6.930;2023-11-19T10:21:47;9.95;;;3.08;;
19944;SDS011;10134;50.952;6.930;2023-11-19T10:24:28;17.70;;;4.72;;
19944;SDS011;10134;50.952;6.930;2023-11-19T10:27:02;20.48;;;3.17;;
19944;SDS011;10134;50.952;6.930;2023-11-19T10:29:32;14.88;;;3.65;;
19944;SDS011;10134;50.952;6.930;2023-11-19T10:32:04;13.85;;;4.05;;
19944;SDS011;10134;50.952;6.930;2023-11-19T10:35:01;13.77;;;3.13;;
19944;SDS011;10134;50.952;6.930;2023-11-19T10:37:34;13.43;;;2.97;;
19944;SDS011;10134;50.952;6.930;2023-11-19T10:40:05;10.90;;;3.63;;
19944;SDS011;10134;50.952;6.930;2023-11-19T10:42:37;18.80;;;3.72;;
19944;SDS011;10134;50.952;6.930;2023-11-19T10:45:14;14.02;;;3.75;;
19944;SDS011;10134;50.952;6.930;2023-11-19T10:47:51;19.20;;;4.18;;
19944;SDS011;10134;50.952;6.930;2023-11-19T10:50:20;14.88;;;3.50;;
19944;SDS011;10134;50.952;6.930;2023-11-19T10:52:51;9.35;;;2.70;;
19944;SDS011;10134;50.952;6.930;2023-11-19T10:55:24;16.60;;;3.53;;
19944;SDS011;10134;50.952;6.930;2023-11-19T10:57:58;14.30;;;3.40;;
19944;SDS011;10134;50.952;6.930;2023-11-19T11:00:30;11.45;;;2.92;;
19944;SDS011;10134;50.952;6.930;2023-11-19T11:03:08;9.85;;;4.25;;
19944;SDS011;10134;50.952;6.930;2023-11-19T11:05:39;17.25;;;3.67;;
19944;SDS011;10134;50.952;6.930;2023-11-19T11:08:09;14.40;;;3.67;;
19944;SDS011;10134;50.952;6.930;2023-11-19T11:10:39;13.88;;;3.40;;
19944;SDS011;10134;50.952;6.930;2023-11-19T11:13:14;12.70;;;3.22;;
19944;SDS011;10134;50.952;6.930;2023-11-19T11:15:44;11.20;;;2.78;;
19944;SDS011;10134;50.952;6.930;2023-11-19T11:18:14;17.73;;;3.25;;
19944;SDS011;10134;50.952;6.930;2023-11-19T11:20:46;13.10;;;3.72;;
19944;SDS011;10134;50.952;6.930;2023-11-19T11:23:27;15.40;;;3.00;;
19944;SDS011;10134;50.952;6.930;2023-11-19T11:26:09;16.63;;;3.03;;
19944;SDS011;10134;50.952;6.930;2023-11-19T11:28:52;21.65;;;3.40;;
19944;SDS011;10134;50.952;6.930;2023-11-19T11:31:31;9.18;;;2.70;;
19944;SDS011;10134;50.952;6.930;2023-11-19T11:34:24;15.63;;;3.15;;
19944;SDS011;10134;50.952;6.930;2023-11-19T11:37:16;20.17;;;3.90;;
19944;SDS011;10134;50.952;6.930;2023-11-19T11:39:46;11.45;;;3.42;;
19944;SDS011;10134;50.952;6.930;2023-11-19T11:45:03;13.35;;;3.85;;
19944;SDS011;10134;50.952;6.930;2023-11-19T11:50:53;13.93;;;3.70;;
19944;SDS011;10134;50.952;6.930;2023-11-19T11:53:25;16.52;;;3.78;;
19944;SDS011;10134;50.952;6.930;2023-11-19T11:55:57;8.90;;;2.47;;
19944;SDS011;10134;50.952;6.930;2023-11-19T11:58:34;10.48;;;2.80;;
19944;SDS011;10134;50.952;6.930;2023-11-19T12:01:04;9.93;;;2.58;;
19944;SDS011;10134;50.952;6.930;2023-11-19T12:03:33;13.77;;;2.83;;
19944;SDS011;10134;50.952;6.930;2023-11-19T12:06:04;14.38;;;4.22;;
19944;SDS011;10134;50.952;6.930;2023-11-19T12:08:35;11.82;;;2.17;;
19944;SDS011;10134;50.952;6.930;2023-11-19T12:11:07;8.75;;;2.60;;
19944;SDS011;10134;50.952;6.930;2023-11-19T12:13:52;10.40;;;2.35;;
19944;SDS011;10134;50.952;6.930;2023-11-19T12:16:25;8.90;;;2.30;;
19944;SDS011;10134;50.952;6.930;2023-11-19T12:18:56;13.52;;;2.58;;
19944;SDS011;10134;50.952;6.930;2023-11-19T12:21:32;8.00;;;2.33;;
19944;SDS011;10134;50.952;6.930;2023-11-19T12:24:04;13.32;;;3.33;;
19944;SDS011;10134;50.952;6.930;2023-11-19T12:26:36;9.55;;;2.65;;
19944;SDS011;10134;50.952;6.930;2023-11-19T12:29:06;11.45;;;2.88;;
19944;SDS011;10134;50.952;6.930;2023-11-19T12:31:36;8.70;;;2.60;;
19944;SDS011;10134;50.952;6.930;2023-11-19T12:34:09;14.10;;;3.38;;
19944;SDS011;10134;50.952;6.930;2023-11-19T12:36:41;15.90;;;3.42;;
19944;SDS011;10134;50.952;6.930;2023-11-19T12:39:10;13.60;;;3.20;;
19944;SDS011;10134;50.952;6.930;2023-11-19T12:41:48;12.88;;;2.03;;
19944;SDS011;10134;50.952;6.930;2023-11-19T12:44:18;7.50;;;2.63;;
19944;SDS011;10134;50.952;6.930;2023-11-19T12:46:58;7.78;;;2.13;;
19944;SDS011;10134;50.952;6.930;2023-11-19T12:49:31;12.63;;;2.72;;
19944;SDS011;10134;50.952;6.930;2023-11-19T12:52:01;10.73;;;2.28;;
19944;SDS011;10134;50.952;6.930;2023-11-19T12:54:34;11.50;;;2.90;;
19944;SDS011;10134;50.952;6.930;2023-11-19T12:57:04;13.52;;;3.17;;
19944;SDS011;10134;50.952;6.930;2023-11-19T12:59:33;12.60;;;3.63;;
19944;SDS011;10134;50.952;6.930;2023-11-19T13:02:02;9.02;;;3.08;;
19944;SDS011;10134;50.952;6.930;2023-11-19T13:04:33;15.88;;;3.22;;
19944;SDS011;10134;50.952;6.930;2023-11-19T13:07:03;11.85;;;3.25;;
19944;SDS011;10134;50.952;6.930;2023-11-19T13:09:33;12.48;;;2.75;;
19944;SDS011;10134;50.952;6.930;2023-11-19T13:12:11;13.90;;;2.55;;
19944;SDS011;10134;50.952;6.930;2023-11-19T13:14:44;11.00;;;2.90;;
19944;SDS011;10134;50.952;6.930;2023-11-19T13:18:19;9.80;;;3.38;;
19944;SDS011;10134;50.952;6.930;2023-11-19T13:20:47;13.27;;;5.13;;
19944;SDS011;10134;50.952;6.930;2023-11-19T13:23:17;13.00;;;5.10;;
19944;SDS011;10134;50.952;6.930;2023-11-19T13:25:47;15.20;;;4.05;;
19944;SDS011;10134;50.952;6.930;2023-11-19T13:28:15;17.40;;;6.57;;
19944;SDS011;10134;50.952;6.930;2023-11-19T13:30:44;25.33;;;7.55;;
19944;SDS011;10134;50.952;6.930;2023-11-19T13:33:13;20.27;;;3.92;;
19944;SDS011;10134;50.952;6.930;2023-11-19T13:35:41;11.50;;;4.40;;
19944;SDS011;10134;50.952;6.930;2023-11-19T13:38:10;15.35;;;3.67;;
19944;SDS011;10134;50.952;6.930;2023-11-19T13:40:40;18.02;;;2.95;;
19944;SDS011;10134;50.952;6.930;2023-11-19T13:43:09;14.40;;;3.65;;
19944;SDS011;10134;50.952;6.930;2023-11-19T13:45:38;14.27;;;3.45;;
19944;SDS011;10134;50.952;6.930;2023-11-19T13:48:07;17.55;;;4.05;;
19944;SDS011;10134;50.952;6.930;2023-11-19T13:50:36;14.93;;;4.50;;
19944;SDS011;10134;50.952;6.930;2023-11-19T13:53:05;22.83;;;6.47;;
19944;SDS011;10134;50.952;6.930;2023-11-19T13:55:33;20.20;;;5.70;;
19944;SDS011;10134;50.952;6.930;2023-11-19T13:58:04;17.88;;;5.93;;
19944;SDS011;10134;50.952;6.930;2023-11-19T14:00:32;12.10;;;4.45;;
19944;SDS011;10134;50.952;6.930;2023-11-19T14:03:01;14.93;;;4.15;;
19944;SDS011;10134;50.952;6.930;2023-11-19T14:05:31;12.13;;;3.15;;
19944;SDS011;10134;50.952;6.930;2023-11-19T14:08:02;16.10;;;3.28;;
19944;SDS011;10134;50.952;6.930;2023-11-19T14:10:52;16.13;;;4.28;;
19944;SDS011;10134;50.952;6.930;2023-11-19T14:13:25;12.57;;;3.20;;
19944;SDS011;10134;50.952;6.930;2023-11-19T14:15:53;11.45;;;3.17;;
19944;SDS011;10134;50.952;6.930;2023-11-19T14:18:22;13.73;;;3.53;;
19944;SDS011;10134;50.952;6.930;2023-11-19T14:20:51;12.85;;;3.10;;
19944;SDS011;10134;50.952;6.930;2023-11-19T14:23:20;13.05;;;2.72;;
19944;SDS011;10134;50.952;6.930;2023-11-19T14:25:49;10.70;;;3.13;;
19944;SDS011;10134;50.952;6.930;2023-11-19T14:28:18;15.48;;;5.22;;
19944;SDS011;10134;50.952;6.930;2023-11-19T14:30:48;14.40;;;4.00;;
19944;SDS011;10134;50.952;6.930;2023-11-19T14:33:24;10.43;;;3.47;;
19944;SDS011;10134;50.952;6.930;2023-11-19T14:35:54;15.15;;;3.63;;
19944;SDS011;10134;50.952;6.930;2023-11-19T14:38:22;16.33;;;4.20;;
19944;SDS011;10134;50.952;6.930;2023-11-19T14:40:51;11.60;;;3.30;;
19944;SDS011;10134;50.952;6.930;2023-11-19T14:43:20;15.63;;;4.55;;
19944;SDS011;10134;50.952;6.930;2023-11-19T14:45:50;12.50;;;3.67;;
19944;SDS011;10134;50.952;6.930;2023-11-19T14:48:20;11.68;;;3.13;;
19944;SDS011;10134;50.952;6.930;2023-11-19T14:50:49;13.30;;;4.00;;
19944;SDS011;10134;50.952;6.930;2023-11-19T14:53:18;8.68;;;3.67;;
19944;SDS011;10134;50.952;6.930;2023-11-19T14:55:47;12.25;;;2.47;;
19944;SDS011;10134;50.952;6.930;2023-11-19T14:58:15;12.10;;;3.55;;
19944;SDS011;10134;50.952;6.930;2023-11-19T15:00:44;10.70;;;3.65;;
19944;SDS011;10134;50.952;6.930;2023-11-19T15:03:14;14.55;;;4.53;;
19944;SDS011;10134;50.952;6.930;2023-11-19T15:05:46;10.30;;;3.47;;